This is the latest recevied weather packets stored in our database for station/object SQ4IXR-4. If no packets are shown the sender has not sent any weather packets the latest 10 day(s).
| Time | Temp. | Humidity | Pressure | Rain* | Wind** | Luminosity | Snow |
|---|---|---|---|---|---|---|---|
| 1777714999 | 28.33° C | 20% | 1025.1 hPa | - | - | - | - |
| 1777714180 | 28.89° C | 21% | 1025.2 hPa | - | - | - | - |
| 1777713371 | 33.33° C | 17% | 1025 hPa | - | - | - | - |
| 1777712558 | 36.67° C | 13% | 1024.9 hPa | - | - | - | - |
| 1777711758 | 51.67° C | 5% | 1024.2 hPa | - | - | - | - |
| 1777710934 | 53.89° C | 5% | 1024.4 hPa | - | - | - | - |
| 1777710106 | 53.89° C | 5% | 1024.5 hPa | - | - | - | - |
| 1777709281 | 52.78° C | 6% | 1024.6 hPa | - | - | - | - |
| 1777708461 | 52.78° C | 5% | 1024.7 hPa | - | - | - | - |
| 1777707637 | 56.67° C | 4% | 1024.7 hPa | - | - | - | - |
| 1777706812 | 56.67° C | 5% | 1024.8 hPa | - | - | - | - |
| 1777705987 | 55.56° C | 5% | 1025 hPa | - | - | - | - |
| 1777705164 | 53.33° C | 6% | 1025.2 hPa | - | - | - | - |
| 1777704340 | 51.11° C | 7% | 1025.4 hPa | - | - | - | - |
| 1777703514 | 50° C | 8% | 1025.5 hPa | - | - | - | - |
| 1777702682 | 47.78° C | 9% | 1025.6 hPa | - | - | - | - |
| 1777701850 | 45° C | 10% | 1025.9 hPa | - | - | - | - |
| 1777701008 | 39.44° C | 15% | 1026.2 hPa | - | - | - | - |
| 1777700146 | 20.56° C | 42% | 1027.4 hPa | - | - | - | - |
| 1777699315 | 15° C | 56% | 1027.7 hPa | - | - | - | - |
| 1777698489 | 13.89° C | 61% | 1027.8 hPa | - | - | - | - |
| 1777697662 | 12.78° C | 67% | 1027.9 hPa | - | - | - | - |
| 1777696836 | 11.67° C | 73% | 1028.1 hPa | - | - | - | - |
| 1777696011 | 10.56° C | 78% | 1028.1 hPa | - | - | - | - |
| 1777695187 | 10° C | 83% | 1028.2 hPa | - | - | - | - |
* Rain since midnight (hover to see other rain measurements)
** Current wind speed in m/s (hover to see current wind gust speed)